createdAt,value
2018-03-27T00:01:13.123Z,71.78
2018-03-27T00:03:41.432Z,72.07
2018-03-27T00:06:09.787Z,72.46
2018-03-27T00:08:38.124Z,72.82
2018-03-27T00:11:06.433Z,72.64
2018-03-27T00:13:35.055Z,72.46
2018-03-27T00:16:03.431Z,72.87
2018-03-27T00:18:32.528Z,73.19
2018-03-27T00:21:01.769Z,73.99
2018-03-27T00:23:30.437Z,73.75
2018-03-27T00:25:59.503Z,73.79
2018-03-27T00:28:45.528Z,73.25
2018-03-27T00:31:31.455Z,73.39
2018-03-27T00:34:17.365Z,74.19
2018-03-27T00:37:03.259Z,74.04
2018-03-27T00:39:49.337Z,73.86
2018-03-27T00:45:33.181Z,74.66
2018-03-27T00:48:01.566Z,75.50
2018-03-27T00:50:29.877Z,74.76
2018-03-27T00:52:58.218Z,74.56
2018-03-27T00:55:26.570Z,74.48
2018-03-27T00:57:54.893Z,74.30
2018-03-27T01:00:23.620Z,74.22
2018-03-27T01:02:51.937Z,73.67
2018-03-27T01:05:20.231Z,73.56
2018-03-27T01:07:48.728Z,73.75
2018-03-27T01:10:17.049Z,73.48
2018-03-27T01:12:46.139Z,73.05
2018-03-27T01:15:15.487Z,73.22
2018-03-27T01:17:43.838Z,72.63
2018-03-27T01:20:12.180Z,72.79
2018-03-27T01:22:40.591Z,73.25
2018-03-27T01:25:09.022Z,73.91
2018-03-27T01:27:37.414Z,74.08
2018-03-27T01:30:05.793Z,73.38
2018-03-27T01:32:34.905Z,73.56
2018-03-27T01:35:04.001Z,73.20
2018-03-27T01:37:32.380Z,72.29
2018-03-27T01:40:00.725Z,71.55
2018-03-27T01:42:29.075Z,72.00
2018-03-27T01:44:57.820Z,72.02
2018-03-27T01:47:26.196Z,72.00
2018-03-27T01:49:55.638Z,72.39
2018-03-27T01:52:24.018Z,72.48
2018-03-27T01:54:52.351Z,72.37
2018-03-27T01:57:21.451Z,71.72
2018-03-27T01:59:49.797Z,72.15
2018-03-27T02:02:18.136Z,73.00
2018-03-27T02:04:46.460Z,72.53
2018-03-27T02:07:14.996Z,72.37
2018-03-27T02:09:43.305Z,73.28
2018-03-27T02:12:18.000Z,73.16
2018-03-27T02:14:51.892Z,72.62
2018-03-27T02:17:25.716Z,73.40
2018-03-27T02:19:59.515Z,73.03
2018-03-27T02:22:28.178Z,72.91
2018-03-27T02:24:56.519Z,73.06
2018-03-27T02:27:24.842Z,73.20
2018-03-27T02:29:53.985Z,72.79
2018-03-27T02:32:22.433Z,72.43
2018-03-27T02:34:50.798Z,71.88
2018-03-27T02:37:19.191Z,72.18
2018-03-27T02:39:47.545Z,71.91
2018-03-27T02:42:15.943Z,71.87
2018-03-27T02:44:45.142Z,71.84
2018-03-27T02:47:14.561Z,71.82
2018-03-27T02:49:42.938Z,72.01
2018-03-27T02:52:11.313Z,72.31
2018-03-27T02:54:39.696Z,72.89
2018-03-27T02:57:08.015Z,72.92
2018-03-27T02:59:36.401Z,73.30
2018-03-27T03:02:04.769Z,72.78
2018-03-27T03:04:33.176Z,72.47
2018-03-27T03:07:01.670Z,72.66
2018-03-27T03:09:30.782Z,73.57
2018-03-27T03:11:59.190Z,73.68
2018-03-27T03:14:27.562Z,73.79
2018-03-27T03:16:55.921Z,73.53
2018-03-27T03:19:25.003Z,73.67
2018-03-27T03:21:54.159Z,73.40
2018-03-27T03:24:22.499Z,73.83
2018-03-27T03:26:50.813Z,73.78
2018-03-27T03:29:19.673Z,73.36
2018-03-27T03:31:48.011Z,72.93
2018-03-27T03:34:16.365Z,74.25
2018-03-27T03:36:44.736Z,74.13
2018-03-27T03:39:13.031Z,73.69
2018-03-27T03:41:41.358Z,74.22
2018-03-27T03:44:09.741Z,73.60
2018-03-27T03:46:38.125Z,74.07
2018-03-27T03:49:06.457Z,73.49
2018-03-27T03:51:35.209Z,72.51
2018-03-27T03:54:03.563Z,72.67
2018-03-27T03:56:31.898Z,73.94
2018-03-27T03:59:00.314Z,74.73
2018-03-27T04:01:28.656Z,75.04
2018-03-27T04:03:57.000Z,74.73
2018-03-27T04:06:25.418Z,74.83
2018-03-27T04:08:53.728Z,75.02
2018-03-27T04:11:22.124Z,74.63
2018-03-27T04:13:50.601Z,74.17
2018-03-27T04:16:18.936Z,74.39
2018-03-27T04:18:47.279Z,74.12
2018-03-27T04:21:15.611Z,74.56
2018-03-27T04:23:44.694Z,74.55
2018-03-27T04:26:13.051Z,74.79
2018-03-27T04:28:41.413Z,75.14
2018-03-27T04:31:09.967Z,75.08
2018-03-27T04:33:39.062Z,74.09
2018-03-27T04:36:08.244Z,73.25
2018-03-27T04:38:36.594Z,73.53
2018-03-27T04:41:04.912Z,73.91
2018-03-27T04:43:34.044Z,73.69
2018-03-27T04:46:02.372Z,74.10
2018-03-27T04:48:30.665Z,73.84
2018-03-27T04:50:59.820Z,74.84
2018-03-27T04:53:28.148Z,74.16
2018-03-27T04:55:57.287Z,73.08
2018-03-27T04:58:25.770Z,72.67
2018-03-27T05:00:54.181Z,72.73
2018-03-27T05:03:23.321Z,72.12
2018-03-27T05:05:51.971Z,71.60
2018-03-27T05:08:21.063Z,72.13
2018-03-27T05:10:49.419Z,71.90
2018-03-27T05:13:17.908Z,71.68
2018-03-27T05:15:46.230Z,71.56
2018-03-27T05:18:14.620Z,71.65
2018-03-27T05:20:43.165Z,71.58
2018-03-27T05:23:11.632Z,71.85
2018-03-27T05:25:40.102Z,71.49
2018-03-27T05:28:08.592Z,72.59
2018-03-27T05:30:36.951Z,73.55
2018-03-27T05:33:05.343Z,73.67
2018-03-27T05:35:33.822Z,73.47
2018-03-27T05:38:02.154Z,73.85
2018-03-27T05:40:30.492Z,73.41
2018-03-27T05:42:59.306Z,73.22
2018-03-27T05:45:27.645Z,73.72
2018-03-27T05:47:56.103Z,73.15
2018-03-27T05:50:24.452Z,73.17
2018-03-27T05:52:53.575Z,72.65
2018-03-27T05:55:21.919Z,72.79
2018-03-27T05:57:50.282Z,71.68
2018-03-27T06:00:18.578Z,71.04
2018-03-27T06:02:47.681Z,71.12
2018-03-27T06:05:16.453Z,71.34
2018-03-27T06:07:44.795Z,72.22
2018-03-27T06:10:13.929Z,71.17
2018-03-27T06:12:43.054Z,71.01
2018-03-27T06:15:11.357Z,70.60
2018-03-27T06:17:39.690Z,69.99
2018-03-27T06:20:08.078Z,71.30
2018-03-27T06:22:37.148Z,72.00
2018-03-27T06:25:05.496Z,71.41
2018-03-27T06:27:34.953Z,71.01
2018-03-27T06:30:03.339Z,71.53
2018-03-27T06:32:31.706Z,70.90
2018-03-27T06:35:00.848Z,69.42
2018-03-27T06:37:29.202Z,68.17
2018-03-27T06:39:57.617Z,66.80
2018-03-27T06:42:26.018Z,67.18
2018-03-27T06:44:54.365Z,66.00
2018-03-27T06:47:22.681Z,66.58
2018-03-27T06:49:51.154Z,66.50
2018-03-27T06:52:19.496Z,65.07
2018-03-27T06:54:47.872Z,64.71
2018-03-27T06:57:16.205Z,65.86
2018-03-27T06:59:44.561Z,67.10
2018-03-27T07:02:12.877Z,66.49
2018-03-27T07:04:42.101Z,65.89
2018-03-27T07:07:10.419Z,66.04
2018-03-27T07:09:38.790Z,65.09
2018-03-27T07:12:07.367Z,64.37
2018-03-27T07:14:35.776Z,63.40
2018-03-27T07:17:04.201Z,63.29
2018-03-27T07:19:32.579Z,62.79
2018-03-27T07:22:00.936Z,62.36
2018-03-27T07:24:29.266Z,61.96
2018-03-27T07:26:57.754Z,62.91
2018-03-27T07:29:26.188Z,62.52
2018-03-27T07:31:54.573Z,62.22
2018-03-27T07:34:23.220Z,62.14
2018-03-27T07:36:51.587Z,62.67
2018-03-27T07:39:20.035Z,62.43
2018-03-27T07:41:48.393Z,62.99
2018-03-27T07:44:16.738Z,64.07
2018-03-27T07:46:45.104Z,63.65
2018-03-27T07:49:13.503Z,63.72
2018-03-27T07:51:41.876Z,64.06
2018-03-27T07:54:10.229Z,65.12
2018-03-27T07:56:38.670Z,64.13
2018-03-27T07:59:07.795Z,64.97
2018-03-27T08:01:36.172Z,63.98
2018-03-27T08:04:04.518Z,63.16
2018-03-27T08:06:32.848Z,63.02
2018-03-27T08:09:01.198Z,63.19
2018-03-27T08:11:29.552Z,65.15
2018-03-27T08:13:58.653Z,64.03
2018-03-27T08:16:26.985Z,63.57
2018-03-27T08:18:55.713Z,64.02
2018-03-27T08:21:24.043Z,63.75
2018-03-27T08:23:53.159Z,64.00
2018-03-27T08:26:22.273Z,63.79
2018-03-27T08:28:51.369Z,63.60
2018-03-27T08:31:19.723Z,62.79
2018-03-27T08:33:48.125Z,63.97
2018-03-27T08:36:17.247Z,62.48
2018-03-27T08:38:45.636Z,60.86
2018-03-27T08:41:14.733Z,60.13
2018-03-27T08:43:43.074Z,59.13
2018-03-27T08:46:11.416Z,59.26
2018-03-27T08:48:39.817Z,58.88
2018-03-27T08:51:08.173Z,60.10
2018-03-27T08:53:36.548Z,59.81
2018-03-27T08:56:04.951Z,59.59
2018-03-27T08:58:33.322Z,58.49
2018-03-27T09:01:01.655Z,57.46
2018-03-27T09:03:30.448Z,57.78
2018-03-27T09:05:58.792Z,57.97
2018-03-27T09:08:27.136Z,57.93
2018-03-27T09:10:55.513Z,57.29
2018-03-27T09:13:24.636Z,54.98
2018-03-27T09:15:52.983Z,54.66
2018-03-27T09:18:21.357Z,55.11
2018-03-27T09:20:49.744Z,55.32
2018-03-27T09:23:18.140Z,53.94
2018-03-27T09:25:46.530Z,52.92
2018-03-27T09:28:14.877Z,51.44
2018-03-27T09:30:43.240Z,51.86
2018-03-27T09:33:11.621Z,54.53
2018-03-27T09:35:40.044Z,52.46
2018-03-27T09:38:08.570Z,50.80
2018-03-27T09:40:37.002Z,48.93
2018-03-27T09:43:05.313Z,46.75
2018-03-27T09:45:33.682Z,45.95
2018-03-27T09:48:02.500Z,44.94
2018-03-27T09:50:30.894Z,46.28
2018-03-27T09:52:59.235Z,44.38
2018-03-27T09:55:27.591Z,43.13
2018-03-27T09:57:55.952Z,43.53
2018-03-27T10:00:29.781Z,44.32
2018-03-27T10:02:58.131Z,40.60
2018-03-27T10:05:26.491Z,39.19
2018-03-27T10:07:55.819Z,35.34
2018-03-27T10:10:24.194Z,34.18
2018-03-27T10:12:52.586Z,35.42
2018-03-27T10:15:21.004Z,35.52
2018-03-27T10:17:50.113Z,36.77
2018-03-27T10:20:19.186Z,34.86
2018-03-27T10:22:47.568Z,34.38
2018-03-27T10:25:15.977Z,31.44
2018-03-27T10:27:44.409Z,31.16
2018-03-27T10:30:13.053Z,30.19
2018-03-27T10:32:41.376Z,29.58
2018-03-27T10:35:09.712Z,28.77
2018-03-27T10:37:38.139Z,28.59
2018-03-27T10:40:06.515Z,31.60
2018-03-27T10:42:34.827Z,31.09
2018-03-27T10:45:03.972Z,31.56
2018-03-27T10:47:32.300Z,31.14
2018-03-27T10:50:01.381Z,31.76
2018-03-27T10:52:30.137Z,30.70
2018-03-27T10:54:58.476Z,29.22
2018-03-27T10:57:27.574Z,24.69
2018-03-27T10:59:55.974Z,25.23
2018-03-27T11:02:24.314Z,25.12
2018-03-27T11:04:52.630Z,25.12
2018-03-27T11:07:21.003Z,27.55
2018-03-27T11:09:49.400Z,25.89
2018-03-27T11:12:17.736Z,22.93
2018-03-27T11:14:47.586Z,18.82
2018-03-27T11:17:15.972Z,17.60
2018-03-27T11:19:44.309Z,19.33
2018-03-27T11:22:12.693Z,19.13
2018-03-27T11:24:41.773Z,20.11
2018-03-27T11:27:10.912Z,20.22
2018-03-27T11:29:39.300Z,20.58
2018-03-27T11:32:07.693Z,20.81
2018-03-27T11:34:36.072Z,19.14
2018-03-27T11:37:04.493Z,17.62
2018-03-27T11:39:32.820Z,15.45
2018-03-27T11:42:01.155Z,17.64
2018-03-27T11:44:30.298Z,20.41
2018-03-27T11:46:58.637Z,22.43
2018-03-27T11:49:27.749Z,24.39
2018-03-27T11:51:56.196Z,27.29
2018-03-27T11:54:24.494Z,28.25
2018-03-27T11:56:52.795Z,29.00
2018-03-27T11:59:21.451Z,29.87
2018-03-27T12:01:49.811Z,30.60
2018-03-27T12:04:18.193Z,31.84
2018-03-27T12:06:46.548Z,32.33
2018-03-27T12:09:14.861Z,32.52
2018-03-27T12:11:43.990Z,33.08
2018-03-27T12:14:12.334Z,32.73
2018-03-27T12:16:41.426Z,33.90
2018-03-27T12:19:10.525Z,33.61
2018-03-27T12:21:38.980Z,33.34
2018-03-27T12:24:07.328Z,33.21
2018-03-27T12:26:35.665Z,32.45
2018-03-27T12:29:04.769Z,32.71
2018-03-27T12:31:33.848Z,31.81
2018-03-27T12:34:02.207Z,30.26
2018-03-27T12:36:30.582Z,29.21
2018-03-27T12:38:58.945Z,30.34
2018-03-27T12:41:27.272Z,30.22
2018-03-27T12:43:56.176Z,29.53
2018-03-27T12:46:25.293Z,29.31
2018-03-27T12:48:53.675Z,29.46
2018-03-27T12:51:22.032Z,29.76
2018-03-27T12:53:51.175Z,29.35
2018-03-27T12:56:19.545Z,29.95
2018-03-27T12:58:47.967Z,29.71
2018-03-27T13:01:17.088Z,29.64
2018-03-27T13:03:46.458Z,29.77
2018-03-27T13:06:15.101Z,30.05
2018-03-27T13:08:43.434Z,30.94
2018-03-27T13:11:11.752Z,30.97
2018-03-27T13:13:40.123Z,29.77
2018-03-27T13:16:08.498Z,29.30
2018-03-27T13:18:36.884Z,29.11
2018-03-27T13:21:05.303Z,27.82
2018-03-27T13:23:33.658Z,28.52
2018-03-27T13:26:02.012Z,29.32
2018-03-27T13:28:30.657Z,29.02
2018-03-27T13:30:59.022Z,28.67
2018-03-27T13:33:27.363Z,28.48
2018-03-27T13:35:55.776Z,29.41
2018-03-27T13:38:24.117Z,29.81
2018-03-27T13:40:52.447Z,29.87
2018-03-27T13:43:20.829Z,30.81
2018-03-27T13:45:49.949Z,30.29
2018-03-27T13:48:18.309Z,30.92
2018-03-27T13:50:47.040Z,31.98
2018-03-27T13:53:15.414Z,32.96
2018-03-27T13:55:43.753Z,32.84
2018-03-27T13:58:12.146Z,32.40
2018-03-27T14:00:41.267Z,32.81
2018-03-27T14:03:10.522Z,32.16
2018-03-27T14:05:38.876Z,32.46
2018-03-27T14:08:07.292Z,32.36
2018-03-27T14:10:35.648Z,32.12
2018-03-27T14:13:04.219Z,32.36
2018-03-27T14:15:32.568Z,32.65
2018-03-27T14:18:00.913Z,32.42
2018-03-27T14:20:29.308Z,32.14
2018-03-27T14:22:58.404Z,31.42
2018-03-27T14:25:27.579Z,30.63
2018-03-27T14:27:55.985Z,30.42
2018-03-27T14:30:25.100Z,31.55
2018-03-27T14:32:53.465Z,31.95
2018-03-27T14:35:21.916Z,31.36
2018-03-27T14:37:50.261Z,31.77
2018-03-27T14:40:18.598Z,32.05
2018-03-27T14:42:47.935Z,32.14
2018-03-27T14:45:16.305Z,33.04
2018-03-27T14:47:44.641Z,32.90
2018-03-27T14:50:13.026Z,33.05
2018-03-27T14:52:41.442Z,32.68
2018-03-27T14:55:09.836Z,32.77
2018-03-27T14:57:38.337Z,32.27
2018-03-27T15:00:06.721Z,32.36
2018-03-27T15:02:35.160Z,32.16
2018-03-27T15:05:03.597Z,32.83
2018-03-27T15:07:31.961Z,32.68
2018-03-27T15:10:00.326Z,32.82
2018-03-27T15:12:28.712Z,33.08
2018-03-27T15:14:57.051Z,32.29
2018-03-27T15:17:25.429Z,32.44
2018-03-27T15:19:54.048Z,32.64
2018-03-27T15:22:23.140Z,32.79
2018-03-27T15:24:51.528Z,33.45
2018-03-27T15:27:19.903Z,32.69
2018-03-27T15:29:48.247Z,32.83
2018-03-27T15:32:16.598Z,33.06
2018-03-27T15:34:45.052Z,32.75
2018-03-27T15:37:13.479Z,31.81
2018-03-27T15:39:41.941Z,31.65
2018-03-27T15:42:10.608Z,31.19
2018-03-27T15:44:38.997Z,31.13
2018-03-27T15:47:07.329Z,30.79
2018-03-27T15:49:35.780Z,31.65
2018-03-27T15:52:04.254Z,31.74
2018-03-27T15:54:32.600Z,31.86
2018-03-27T15:57:00.981Z,32.04
2018-03-27T15:59:29.438Z,31.77
2018-03-27T16:01:57.852Z,31.96
2018-03-27T16:04:26.337Z,33.01
2018-03-27T16:06:54.720Z,33.08
2018-03-27T16:09:23.154Z,33.31
2018-03-27T16:11:51.520Z,33.68
2018-03-27T16:14:19.883Z,33.54
2018-03-27T16:16:49.709Z,33.43
2018-03-27T16:19:18.132Z,33.78
2018-03-27T16:21:46.470Z,34.51
2018-03-27T16:24:14.846Z,34.40
2018-03-27T16:26:43.318Z,34.75
2018-03-27T16:29:12.440Z,34.88
2018-03-27T16:31:40.873Z,34.46
2018-03-27T16:34:09.326Z,34.65
2018-03-27T16:36:37.648Z,34.67
2018-03-27T16:39:05.990Z,34.78
2018-03-27T16:41:34.366Z,35.35
2018-03-27T16:44:02.723Z,35.58
2018-03-27T16:46:31.056Z,35.62
2018-03-27T16:48:59.665Z,35.71
2018-03-27T16:51:29.209Z,36.11
2018-03-27T16:53:57.559Z,35.74
2018-03-27T16:56:25.902Z,35.12
2018-03-27T16:58:54.298Z,35.60
2018-03-27T17:01:22.667Z,35.87
2018-03-27T17:03:51.044Z,35.49
2018-03-27T17:06:19.393Z,35.31
2018-03-27T17:08:47.728Z,35.61
2018-03-27T17:11:17.061Z,35.60
2018-03-27T17:13:45.410Z,36.07
2018-03-27T17:16:14.651Z,36.51
2018-03-27T17:18:43.030Z,36.99
2018-03-27T17:21:11.361Z,37.38
2018-03-27T17:23:39.681Z,37.58
2018-03-27T17:26:08.014Z,37.92
2018-03-27T17:28:36.334Z,39.33
2018-03-27T17:31:04.707Z,39.74
2018-03-27T17:33:33.552Z,40.05
2018-03-27T17:36:02.667Z,40.25
2018-03-27T17:38:31.788Z,40.41
2018-03-27T17:41:00.205Z,40.80
2018-03-27T17:43:28.551Z,41.73
2018-03-27T17:45:56.883Z,41.95
2018-03-27T17:48:25.254Z,41.75
2018-03-27T17:50:53.605Z,41.93
2018-03-27T17:53:22.520Z,41.47
2018-03-27T17:55:51.034Z,41.62
2018-03-27T17:58:19.405Z,41.63
2018-03-27T18:00:48.487Z,41.64
2018-03-27T18:03:18.090Z,41.81
2018-03-27T18:05:46.445Z,42.06
2018-03-27T18:08:15.586Z,42.54
2018-03-27T18:10:44.733Z,42.91
2018-03-27T18:13:13.095Z,43.27
2018-03-27T18:15:41.437Z,44.27
2018-03-27T18:18:10.664Z,44.54
2018-03-27T18:20:39.018Z,45.48
2018-03-27T18:23:08.138Z,45.79
2018-03-27T18:25:36.545Z,45.86
2018-03-27T18:28:04.893Z,45.59
2018-03-27T18:30:33.236Z,45.68
2018-03-27T18:33:01.574Z,45.68
2018-03-27T18:35:30.948Z,46.04
2018-03-27T18:38:00.548Z,47.03
2018-03-27T18:40:28.954Z,47.30
2018-03-27T18:42:57.273Z,47.23
2018-03-27T18:45:25.638Z,46.65
2018-03-27T18:47:54.069Z,46.68
2018-03-27T18:50:22.447Z,46.91
2018-03-27T18:52:50.838Z,46.85
2018-03-27T18:55:19.798Z,46.46
2018-03-27T18:57:48.135Z,46.82
2018-03-27T19:00:16.492Z,46.78
2018-03-27T19:02:45.159Z,47.36
2018-03-27T19:05:13.514Z,47.72
2018-03-27T19:07:41.864Z,47.67
2018-03-27T19:12:44.599Z,47.66
2018-03-27T19:15:12.957Z,47.59
2018-03-27T19:17:41.314Z,47.54
2018-03-27T19:20:09.646Z,48.10
2018-03-27T19:22:38.263Z,47.87
2018-03-27T19:25:06.657Z,48.48
2018-03-27T19:27:35.017Z,48.28
2018-03-27T19:30:03.380Z,48.31
2018-03-27T19:32:31.766Z,48.39
2018-03-27T19:35:00.091Z,48.56
2018-03-27T19:37:28.429Z,48.57
2018-03-27T19:39:56.792Z,48.64
2018-03-27T19:42:25.164Z,48.59
2018-03-27T19:44:53.732Z,48.40
2018-03-27T19:47:22.822Z,48.36
2018-03-27T19:49:51.187Z,48.03
2018-03-27T19:52:19.588Z,48.04
2018-03-27T19:54:47.921Z,47.80
2018-03-27T19:57:16.269Z,48.17
2018-03-27T19:59:44.796Z,48.51
2018-03-27T20:02:13.938Z,48.85
2018-03-27T20:04:42.345Z,49.06
2018-03-27T20:07:11.090Z,49.24
2018-03-27T20:09:39.456Z,49.17
2018-03-27T20:12:07.789Z,48.86
2018-03-27T20:14:36.184Z,48.75
2018-03-27T20:17:04.613Z,48.79
2018-03-27T20:19:32.972Z,49.13
2018-03-27T20:22:01.393Z,48.96
2018-03-27T20:24:30.574Z,49.83
2018-03-27T20:26:58.942Z,50.09
2018-03-27T20:29:27.493Z,50.25
2018-03-27T20:31:55.887Z,49.77
2018-03-27T20:34:24.370Z,49.96
2018-03-27T20:36:52.760Z,50.18
2018-03-27T20:39:21.121Z,50.26
2018-03-27T20:41:49.451Z,50.88
2018-03-27T20:44:17.878Z,51.02
2018-03-27T20:46:46.294Z,50.34
2018-03-27T20:49:14.733Z,50.76
2018-03-27T20:51:43.232Z,50.92
2018-03-27T20:54:11.617Z,50.86
2018-03-27T20:56:39.983Z,50.22
2018-03-27T20:59:08.354Z,51.19
2018-03-27T21:01:36.680Z,51.37
2018-03-27T21:04:05.049Z,52.09
2018-03-27T21:06:34.205Z,52.29
2018-03-27T21:09:02.590Z,51.81
2018-03-27T21:11:30.964Z,52.52
2018-03-27T21:13:59.561Z,52.13
2018-03-27T21:16:27.897Z,52.16
2018-03-27T21:18:56.228Z,52.25
2018-03-27T21:21:24.579Z,52.18
2018-03-27T21:23:52.930Z,51.94
2018-03-27T21:26:21.998Z,51.47
2018-03-27T21:28:51.149Z,51.69
2018-03-27T21:31:19.507Z,51.48
2018-03-27T21:33:47.852Z,50.88
2018-03-27T21:36:16.456Z,50.78
2018-03-27T21:38:45.682Z,51.10
2018-03-27T21:41:14.002Z,51.56
2018-03-27T21:43:42.347Z,51.97
2018-03-27T21:46:10.690Z,51.79
2018-03-27T21:48:39.002Z,51.50
2018-03-27T21:51:07.349Z,51.10
2018-03-27T21:53:36.427Z,51.60
2018-03-27T21:56:05.676Z,51.65
2018-03-27T21:58:34.451Z,52.37
2018-03-27T22:01:02.836Z,52.04
2018-03-27T22:03:40.539Z,51.42
2018-03-27T22:06:08.913Z,51.61
2018-03-27T22:08:37.250Z,51.33
2018-03-27T22:11:05.674Z,51.32
2018-03-27T22:13:34.047Z,51.83
2018-03-27T22:16:02.409Z,52.25
2018-03-27T22:18:31.043Z,52.51
2018-03-27T22:20:59.378Z,52.66
2018-03-27T22:23:27.770Z,52.40
2018-03-27T22:25:56.133Z,52.44
2018-03-27T22:28:25.244Z,52.22
2018-03-27T22:30:53.592Z,52.38
2018-03-27T22:33:22.707Z,52.78
2018-03-27T22:35:51.047Z,52.52
2018-03-27T22:38:19.400Z,52.12
2018-03-27T22:40:47.944Z,52.19
2018-03-27T22:43:16.305Z,52.28
2018-03-27T22:45:45.421Z,52.24
2018-03-27T22:48:13.798Z,52.81
2018-03-27T22:50:42.890Z,52.82
2018-03-27T22:53:11.236Z,52.62
2018-03-27T22:55:39.612Z,52.34
2018-03-27T22:58:07.961Z,52.52
2018-03-27T23:00:36.301Z,52.74
2018-03-27T23:03:05.762Z,53.19
2018-03-27T23:05:34.090Z,53.97
2018-03-27T23:08:02.474Z,54.45
2018-03-27T23:10:30.839Z,54.30
2018-03-27T23:12:59.938Z,54.00
2018-03-27T23:15:29.045Z,54.21
2018-03-27T23:17:57.411Z,54.76
2018-03-27T23:20:25.764Z,55.18
2018-03-27T23:22:54.095Z,54.84
2018-03-27T23:25:23.296Z,55.18
2018-03-27T23:27:51.645Z,55.58
2018-03-27T23:30:19.977Z,55.37
2018-03-27T23:32:48.322Z,55.59
2018-03-27T23:35:16.679Z,56.13
2018-03-27T23:37:45.811Z,56.18
2018-03-27T23:40:14.204Z,56.39
2018-03-27T23:42:42.725Z,56.66
2018-03-27T23:45:11.080Z,56.80
2018-03-27T23:47:39.615Z,56.50
2018-03-27T23:50:07.963Z,55.82
2018-03-27T23:52:37.093Z,56.65
2018-03-27T23:55:05.440Z,57.21
2018-03-27T23:57:33.921Z,57.47
